sensor_id;sensor_type;location;lat;lon;timestamp;P1;durP1;ratioP1;P2;durP2;ratioP2
27863;SDS011;15980;51.092;13.916;2022-08-25T00:00:33;14.10;;;9.88;;
27863;SDS011;15980;51.092;13.916;2022-08-25T00:05:37;15.60;;;9.93;;
27863;SDS011;15980;51.092;13.916;2022-08-25T00:10:41;14.60;;;10.18;;
27863;SDS011;15980;51.092;13.916;2022-08-25T00:15:44;15.10;;;10.02;;
27863;SDS011;15980;51.092;13.916;2022-08-25T00:20:48;17.95;;;10.32;;
27863;SDS011;15980;51.092;13.916;2022-08-25T00:25:51;13.82;;;9.23;;
27863;SDS011;15980;51.092;13.916;2022-08-25T00:30:53;14.75;;;10.10;;
27863;SDS011;15980;51.092;13.916;2022-08-25T00:35:58;16.98;;;10.88;;
27863;SDS011;15980;51.092;13.916;2022-08-25T00:41:01;19.23;;;11.93;;
27863;SDS011;15980;51.092;13.916;2022-08-25T00:46:07;15.85;;;10.85;;
27863;SDS011;15980;51.092;13.916;2022-08-25T00:51:12;19.98;;;12.00;;
27863;SDS011;15980;51.092;13.916;2022-08-25T00:56:18;19.40;;;11.60;;
27863;SDS011;15980;51.092;13.916;2022-08-25T01:01:21;21.02;;;12.25;;
27863;SDS011;15980;51.092;13.916;2022-08-25T01:06:25;15.98;;;10.52;;
27863;SDS011;15980;51.092;13.916;2022-08-25T01:11:29;17.13;;;11.43;;
27863;SDS011;15980;51.092;13.916;2022-08-25T01:16:32;19.20;;;11.88;;
27863;SDS011;15980;51.092;13.916;2022-08-25T01:21:38;18.98;;;11.60;;
27863;SDS011;15980;51.092;13.916;2022-08-25T01:26:42;20.85;;;12.95;;
27863;SDS011;15980;51.092;13.916;2022-08-25T01:31:45;19.45;;;11.88;;
27863;SDS011;15980;51.092;13.916;2022-08-25T01:36:50;17.38;;;11.80;;
27863;SDS011;15980;51.092;13.916;2022-08-25T01:41:57;17.10;;;11.43;;
27863;SDS011;15980;51.092;13.916;2022-08-25T01:47:10;18.75;;;11.50;;
27863;SDS011;15980;51.092;13.916;2022-08-25T01:52:15;18.30;;;12.10;;
27863;SDS011;15980;51.092;13.916;2022-08-25T01:57:22;19.58;;;11.38;;
27863;SDS011;15980;51.092;13.916;2022-08-25T02:02:25;15.90;;;11.02;;
27863;SDS011;15980;51.092;13.916;2022-08-25T02:07:29;20.50;;;12.77;;
27863;SDS011;15980;51.092;13.916;2022-08-25T02:12:32;16.80;;;11.00;;
27863;SDS011;15980;51.092;13.916;2022-08-25T02:17:37;18.75;;;12.32;;
27863;SDS011;15980;51.092;13.916;2022-08-25T02:22:41;17.80;;;11.32;;
27863;SDS011;15980;51.092;13.916;2022-08-25T02:27:44;17.75;;;11.38;;
27863;SDS011;15980;51.092;13.916;2022-08-25T02:32:48;22.17;;;12.68;;
27863;SDS011;15980;51.092;13.916;2022-08-25T02:37:52;20.33;;;11.65;;
27863;SDS011;15980;51.092;13.916;2022-08-25T02:42:55;20.63;;;13.48;;
27863;SDS011;15980;51.092;13.916;2022-08-25T02:47:58;20.17;;;13.45;;
27863;SDS011;15980;51.092;13.916;2022-08-25T02:53:02;20.13;;;13.07;;
27863;SDS011;15980;51.092;13.916;2022-08-25T02:58:05;24.67;;;15.05;;
27863;SDS011;15980;51.092;13.916;2022-08-25T03:03:09;20.63;;;13.40;;
27863;SDS011;15980;51.092;13.916;2022-08-25T03:08:13;20.33;;;12.23;;
27863;SDS011;15980;51.092;13.916;2022-08-25T03:13:16;19.63;;;12.48;;
27863;SDS011;15980;51.092;13.916;2022-08-25T03:18:19;19.42;;;11.68;;
27863;SDS011;15980;51.092;13.916;2022-08-25T03:23:24;18.50;;;11.43;;
27863;SDS011;15980;51.092;13.916;2022-08-25T03:28:27;14.85;;;10.35;;
27863;SDS011;15980;51.092;13.916;2022-08-25T03:33:33;16.40;;;9.88;;
27863;SDS011;15980;51.092;13.916;2022-08-25T03:38:39;15.95;;;10.27;;
27863;SDS011;15980;51.092;13.916;2022-08-25T03:43:43;15.27;;;10.18;;
27863;SDS011;15980;51.092;13.916;2022-08-25T03:48:46;18.00;;;11.00;;
27863;SDS011;15980;51.092;13.916;2022-08-25T03:53:51;22.77;;;13.55;;
27863;SDS011;15980;51.092;13.916;2022-08-25T03:58:54;17.77;;;11.73;;
27863;SDS011;15980;51.092;13.916;2022-08-25T04:03:57;19.05;;;12.23;;
27863;SDS011;15980;51.092;13.916;2022-08-25T04:09:01;21.80;;;13.43;;
27863;SDS011;15980;51.092;13.916;2022-08-25T04:14:04;23.63;;;13.25;;
27863;SDS011;15980;51.092;13.916;2022-08-25T04:19:07;24.38;;;14.70;;
27863;SDS011;15980;51.092;13.916;2022-08-25T04:24:12;20.17;;;13.65;;
27863;SDS011;15980;51.092;13.916;2022-08-25T04:29:16;21.40;;;12.50;;
27863;SDS011;15980;51.092;13.916;2022-08-25T04:34:21;19.50;;;12.75;;
27863;SDS011;15980;51.092;13.916;2022-08-25T04:39:27;18.85;;;12.32;;
27863;SDS011;15980;51.092;13.916;2022-08-25T04:44:30;18.23;;;11.98;;
27863;SDS011;15980;51.092;13.916;2022-08-25T04:49:34;19.77;;;12.57;;
27863;SDS011;15980;51.092;13.916;2022-08-25T04:54:38;20.75;;;13.05;;
27863;SDS011;15980;51.092;13.916;2022-08-25T04:59:41;23.98;;;12.75;;
27863;SDS011;15980;51.092;13.916;2022-08-25T05:04:44;22.73;;;13.75;;
27863;SDS011;15980;51.092;13.916;2022-08-25T05:09:48;22.40;;;13.15;;
27863;SDS011;15980;51.092;13.916;2022-08-25T05:14:51;31.67;;;17.13;;
27863;SDS011;15980;51.092;13.916;2022-08-25T05:19:54;30.00;;;18.10;;
27863;SDS011;15980;51.092;13.916;2022-08-25T05:24:58;30.52;;;17.20;;
27863;SDS011;15980;51.092;13.916;2022-08-25T05:30:01;22.98;;;15.07;;
27863;SDS011;15980;51.092;13.916;2022-08-25T05:35:04;21.30;;;14.48;;
27863;SDS011;15980;51.092;13.916;2022-08-25T05:40:09;21.33;;;13.70;;
27863;SDS011;15980;51.092;13.916;2022-08-25T05:45:12;17.00;;;11.93;;
27863;SDS011;15980;51.092;13.916;2022-08-25T05:50:16;14.57;;;11.18;;
27863;SDS011;15980;51.092;13.916;2022-08-25T05:55:20;14.63;;;11.32;;
27863;SDS011;15980;51.092;13.916;2022-08-25T06:00:23;14.85;;;11.43;;
27863;SDS011;15980;51.092;13.916;2022-08-25T06:05:26;19.25;;;13.68;;
27863;SDS011;15980;51.092;13.916;2022-08-25T06:10:31;18.27;;;12.85;;
27863;SDS011;15980;51.092;13.916;2022-08-25T06:15:34;19.40;;;13.77;;
27863;SDS011;15980;51.092;13.916;2022-08-25T06:20:37;22.13;;;15.55;;
27863;SDS011;15980;51.092;13.916;2022-08-25T06:25:41;22.85;;;15.20;;
27863;SDS011;15980;51.092;13.916;2022-08-25T06:30:56;22.50;;;15.18;;
27863;SDS011;15980;51.092;13.916;2022-08-25T06:36:00;22.20;;;15.27;;
27863;SDS011;15980;51.092;13.916;2022-08-25T06:41:05;23.80;;;15.70;;
27863;SDS011;15980;51.092;13.916;2022-08-25T06:46:11;21.33;;;14.57;;
27863;SDS011;15980;51.092;13.916;2022-08-25T06:51:16;23.67;;;15.35;;
27863;SDS011;15980;51.092;13.916;2022-08-25T06:56:22;27.85;;;16.88;;
27863;SDS011;15980;51.092;13.916;2022-08-25T07:01:25;34.83;;;19.35;;
27863;SDS011;15980;51.092;13.916;2022-08-25T07:06:29;26.75;;;18.33;;
27863;SDS011;15980;51.092;13.916;2022-08-25T07:11:37;30.08;;;17.45;;
27863;SDS011;15980;51.092;13.916;2022-08-25T07:16:40;21.30;;;15.88;;
27863;SDS011;15980;51.092;13.916;2022-08-25T07:21:48;25.55;;;17.30;;
27863;SDS011;15980;51.092;13.916;2022-08-25T07:26:54;27.58;;;16.52;;
27863;SDS011;15980;51.092;13.916;2022-08-25T07:31:57;24.75;;;16.95;;
27863;SDS011;15980;51.092;13.916;2022-08-25T07:37:00;20.88;;;14.18;;
27863;SDS011;15980;51.092;13.916;2022-08-25T07:42:06;20.80;;;13.82;;
27863;SDS011;15980;51.092;13.916;2022-08-25T07:47:09;28.05;;;15.75;;
27863;SDS011;15980;51.092;13.916;2022-08-25T07:52:12;20.95;;;13.25;;
27863;SDS011;15980;51.092;13.916;2022-08-25T07:57:16;22.25;;;13.95;;
27863;SDS011;15980;51.092;13.916;2022-08-25T08:02:19;23.70;;;14.70;;
27863;SDS011;15980;51.092;13.916;2022-08-25T08:07:23;18.52;;;12.73;;
27863;SDS011;15980;51.092;13.916;2022-08-25T08:12:28;17.05;;;11.48;;
27863;SDS011;15980;51.092;13.916;2022-08-25T08:17:31;16.33;;;9.30;;
27863;SDS011;15980;51.092;13.916;2022-08-25T08:22:34;14.35;;;8.38;;
27863;SDS011;15980;51.092;13.916;2022-08-25T08:27:38;15.88;;;8.15;;
27863;SDS011;15980;51.092;13.916;2022-08-25T08:32:43;14.55;;;8.35;;
27863;SDS011;15980;51.092;13.916;2022-08-25T08:38:05;12.23;;;7.80;;
27863;SDS011;15980;51.092;13.916;2022-08-25T08:43:13;11.48;;;7.53;;
27863;SDS011;15980;51.092;13.916;2022-08-25T08:48:23;16.60;;;7.50;;
27863;SDS011;15980;51.092;13.916;2022-08-25T08:53:40;12.83;;;8.57;;
27863;SDS011;15980;51.092;13.916;2022-08-25T08:58:49;14.35;;;7.20;;
27863;SDS011;15980;51.092;13.916;2022-08-25T09:03:58;17.02;;;7.88;;
27863;SDS011;15980;51.092;13.916;2022-08-25T09:09:06;16.55;;;7.35;;
27863;SDS011;15980;51.092;13.916;2022-08-25T09:14:17;20.67;;;8.07;;
27863;SDS011;15980;51.092;13.916;2022-08-25T09:25:14;18.80;;;8.30;;
27863;SDS011;15980;51.092;13.916;2022-08-25T09:30:32;14.45;;;7.53;;
27863;SDS011;15980;51.092;13.916;2022-08-25T09:35:44;22.23;;;7.88;;
27863;SDS011;15980;51.092;13.916;2022-08-25T09:40:49;25.25;;;8.98;;
27863;SDS011;15980;51.092;13.916;2022-08-25T09:45:58;18.75;;;7.07;;
27863;SDS011;15980;51.092;13.916;2022-08-25T09:51:09;14.45;;;6.85;;
27863;SDS011;15980;51.092;13.916;2022-08-25T09:56:18;15.80;;;7.28;;
27863;SDS011;15980;51.092;13.916;2022-08-25T10:01:24;24.58;;;7.25;;
27863;SDS011;15980;51.092;13.916;2022-08-25T10:06:28;21.05;;;6.47;;
27863;SDS011;15980;51.092;13.916;2022-08-25T10:11:39;23.25;;;7.25;;
27863;SDS011;15980;51.092;13.916;2022-08-25T10:16:45;25.55;;;6.22;;
27863;SDS011;15980;51.092;13.916;2022-08-25T10:22:01;22.30;;;7.15;;
27863;SDS011;15980;51.092;13.916;2022-08-25T10:27:09;35.63;;;8.40;;
27863;SDS011;15980;51.092;13.916;2022-08-25T10:32:22;20.45;;;7.43;;
27863;SDS011;15980;51.092;13.916;2022-08-25T10:37:34;21.60;;;7.97;;
27863;SDS011;15980;51.092;13.916;2022-08-25T10:42:47;32.53;;;7.20;;
27863;SDS011;15980;51.092;13.916;2022-08-25T10:48:11;28.42;;;8.25;;
27863;SDS011;15980;51.092;13.916;2022-08-25T10:53:34;26.42;;;7.63;;
27863;SDS011;15980;51.092;13.916;2022-08-25T11:04:22;19.48;;;7.03;;
27863;SDS011;15980;51.092;13.916;2022-08-25T11:09:32;32.60;;;7.15;;
27863;SDS011;15980;51.092;13.916;2022-08-25T11:14:40;27.30;;;8.13;;
27863;SDS011;15980;51.092;13.916;2022-08-25T11:19:51;20.60;;;7.03;;
27863;SDS011;15980;51.092;13.916;2022-08-25T11:25:00;24.80;;;6.47;;
27863;SDS011;15980;51.092;13.916;2022-08-25T11:30:10;25.13;;;7.43;;
27863;SDS011;15980;51.092;13.916;2022-08-25T11:35:17;22.20;;;7.05;;
27863;SDS011;15980;51.092;13.916;2022-08-25T11:40:34;23.08;;;7.50;;
27863;SDS011;15980;51.092;13.916;2022-08-25T11:45:47;24.13;;;6.82;;
27863;SDS011;15980;51.092;13.916;2022-08-25T11:51:01;18.00;;;7.07;;
27863;SDS011;15980;51.092;13.916;2022-08-25T11:56:06;23.02;;;7.15;;
27863;SDS011;15980;51.092;13.916;2022-08-25T12:12:29;25.90;;;7.70;;
27863;SDS011;15980;51.092;13.916;2022-08-25T12:17:36;22.13;;;7.18;;
27863;SDS011;15980;51.092;13.916;2022-08-25T12:22:53;18.75;;;6.30;;
27863;SDS011;15980;51.092;13.916;2022-08-25T12:28:00;20.75;;;7.03;;
27863;SDS011;15980;51.092;13.916;2022-08-25T12:33:11;27.75;;;7.05;;
27863;SDS011;15980;51.092;13.916;2022-08-25T12:38:28;21.85;;;6.65;;
27863;SDS011;15980;51.092;13.916;2022-08-25T12:43:34;30.27;;;6.93;;
27863;SDS011;15980;51.092;13.916;2022-08-25T12:48:42;24.60;;;6.63;;
27863;SDS011;15980;51.092;13.916;2022-08-25T12:54:00;24.75;;;6.25;;
27863;SDS011;15980;51.092;13.916;2022-08-25T12:59:17;17.40;;;5.80;;
27863;SDS011;15980;51.092;13.916;2022-08-25T13:04:38;30.15;;;7.72;;
27863;SDS011;15980;51.092;13.916;2022-08-25T13:10:16;23.05;;;6.40;;
27863;SDS011;15980;51.092;13.916;2022-08-25T13:15:27;31.00;;;7.72;;
27863;SDS011;15980;51.092;13.916;2022-08-25T13:20:38;24.13;;;7.20;;
27863;SDS011;15980;51.092;13.916;2022-08-25T13:25:46;32.83;;;7.53;;
27863;SDS011;15980;51.092;13.916;2022-08-25T13:30:54;24.05;;;6.60;;
27863;SDS011;15980;51.092;13.916;2022-08-25T13:36:03;19.40;;;5.75;;
27863;SDS011;15980;51.092;13.916;2022-08-25T13:41:25;22.23;;;7.13;;
27863;SDS011;15980;51.092;13.916;2022-08-25T13:46:28;25.40;;;6.57;;
27863;SDS011;15980;51.092;13.916;2022-08-25T13:51:31;25.70;;;6.32;;
27863;SDS011;15980;51.092;13.916;2022-08-25T13:56:37;22.02;;;6.22;;
27863;SDS011;15980;51.092;13.916;2022-08-25T14:01:43;25.48;;;6.40;;
27863;SDS011;15980;51.092;13.916;2022-08-25T14:06:48;20.13;;;6.50;;
27863;SDS011;15980;51.092;13.916;2022-08-25T14:12:08;27.98;;;6.93;;
27863;SDS011;15980;51.092;13.916;2022-08-25T14:17:33;26.77;;;7.68;;
27863;SDS011;15980;51.092;13.916;2022-08-25T14:22:39;24.23;;;6.72;;
27863;SDS011;15980;51.092;13.916;2022-08-25T14:27:43;29.05;;;8.35;;
27863;SDS011;15980;51.092;13.916;2022-08-25T14:33:05;36.15;;;7.63;;
27863;SDS011;15980;51.092;13.916;2022-08-25T14:38:10;31.48;;;7.50;;
27863;SDS011;15980;51.092;13.916;2022-08-25T14:43:14;21.98;;;6.20;;
27863;SDS011;15980;51.092;13.916;2022-08-25T14:48:19;37.22;;;8.02;;
27863;SDS011;15980;51.092;13.916;2022-08-25T14:53:26;23.40;;;6.90;;
27863;SDS011;15980;51.092;13.916;2022-08-25T14:58:30;22.27;;;6.47;;
27863;SDS011;15980;51.092;13.916;2022-08-25T15:03:35;29.50;;;7.53;;
27863;SDS011;15980;51.092;13.916;2022-08-25T15:08:39;26.30;;;6.75;;
27863;SDS011;15980;51.092;13.916;2022-08-25T15:14:01;26.90;;;8.40;;
27863;SDS011;15980;51.092;13.916;2022-08-25T15:19:04;27.15;;;6.65;;
27863;SDS011;15980;51.092;13.916;2022-08-25T15:24:08;22.65;;;6.85;;
27863;SDS011;15980;51.092;13.916;2022-08-25T15:29:13;26.30;;;7.30;;
27863;SDS011;15980;51.092;13.916;2022-08-25T15:34:16;24.85;;;6.43;;
27863;SDS011;15980;51.092;13.916;2022-08-25T15:39:19;32.15;;;7.82;;
27863;SDS011;15980;51.092;13.916;2022-08-25T15:44:23;27.50;;;8.27;;
27863;SDS011;15980;51.092;13.916;2022-08-25T15:49:29;24.42;;;7.68;;
27863;SDS011;15980;51.092;13.916;2022-08-25T15:54:32;22.63;;;8.27;;
27863;SDS011;15980;51.092;13.916;2022-08-25T15:59:36;21.10;;;7.32;;
27863;SDS011;15980;51.092;13.916;2022-08-25T16:04:40;23.45;;;8.02;;
27863;SDS011;15980;51.092;13.916;2022-08-25T16:09:43;29.15;;;8.30;;
27863;SDS011;15980;51.092;13.916;2022-08-25T16:14:48;24.45;;;7.70;;
27863;SDS011;15980;51.092;13.916;2022-08-25T16:19:50;25.75;;;7.75;;
27863;SDS011;15980;51.092;13.916;2022-08-25T16:24:53;28.75;;;8.32;;
27863;SDS011;15980;51.092;13.916;2022-08-25T16:29:57;28.83;;;8.10;;
27863;SDS011;15980;51.092;13.916;2022-08-25T16:35:01;34.65;;;9.18;;
27863;SDS011;15980;51.092;13.916;2022-08-25T16:40:04;32.17;;;8.45;;
27863;SDS011;15980;51.092;13.916;2022-08-25T16:45:11;32.47;;;8.30;;
27863;SDS011;15980;51.092;13.916;2022-08-25T16:50:14;37.20;;;9.73;;
27863;SDS011;15980;51.092;13.916;2022-08-25T16:55:18;34.00;;;8.50;;
27863;SDS011;15980;51.092;13.916;2022-08-25T17:00:23;30.85;;;9.30;;
27863;SDS011;15980;51.092;13.916;2022-08-25T17:05:28;23.65;;;7.88;;
27863;SDS011;15980;51.092;13.916;2022-08-25T17:10:33;32.22;;;9.20;;
27863;SDS011;15980;51.092;13.916;2022-08-25T17:15:42;22.77;;;8.38;;
27863;SDS011;15980;51.092;13.916;2022-08-25T17:20:46;23.80;;;8.30;;
27863;SDS011;15980;51.092;13.916;2022-08-25T17:25:49;22.40;;;8.75;;
27863;SDS011;15980;51.092;13.916;2022-08-25T17:30:54;18.48;;;8.23;;
27863;SDS011;15980;51.092;13.916;2022-08-25T17:35:57;24.48;;;9.98;;
27863;SDS011;15980;51.092;13.916;2022-08-25T17:41:01;27.65;;;9.20;;
27863;SDS011;15980;51.092;13.916;2022-08-25T17:46:08;25.48;;;9.15;;
27863;SDS011;15980;51.092;13.916;2022-08-25T17:51:12;26.63;;;10.18;;
27863;SDS011;15980;51.092;13.916;2022-08-25T17:56:17;22.48;;;10.45;;
27863;SDS011;15980;51.092;13.916;2022-08-25T18:01:23;18.95;;;9.23;;
27863;SDS011;15980;51.092;13.916;2022-08-25T18:06:28;36.30;;;10.45;;
27863;SDS011;15980;51.092;13.916;2022-08-25T18:11:31;24.00;;;9.70;;
27863;SDS011;15980;51.092;13.916;2022-08-25T18:16:35;22.75;;;10.60;;
27863;SDS011;15980;51.092;13.916;2022-08-25T18:21:39;21.50;;;10.63;;
27863;SDS011;15980;51.092;13.916;2022-08-25T18:26:41;30.98;;;11.70;;
27863;SDS011;15980;51.092;13.916;2022-08-25T18:31:45;27.27;;;11.43;;
27863;SDS011;15980;51.092;13.916;2022-08-25T18:36:48;27.05;;;11.50;;
27863;SDS011;15980;51.092;13.916;2022-08-25T18:41:52;25.55;;;11.20;;
27863;SDS011;15980;51.092;13.916;2022-08-25T18:46:56;25.15;;;11.60;;
27863;SDS011;15980;51.092;13.916;2022-08-25T18:51:59;25.85;;;10.90;;
27863;SDS011;15980;51.092;13.916;2022-08-25T18:57:02;18.08;;;11.18;;
27863;SDS011;15980;51.092;13.916;2022-08-25T19:02:06;20.58;;;10.85;;
27863;SDS011;15980;51.092;13.916;2022-08-25T19:07:10;22.25;;;10.48;;
27863;SDS011;15980;51.092;13.916;2022-08-25T19:12:14;18.65;;;10.68;;
27863;SDS011;15980;51.092;13.916;2022-08-25T19:17:18;17.35;;;10.27;;
27863;SDS011;15980;51.092;13.916;2022-08-25T19:22:21;23.45;;;11.32;;
27863;SDS011;15980;51.092;13.916;2022-08-25T19:27:38;32.72;;;13.02;;
27863;SDS011;15980;51.092;13.916;2022-08-25T19:32:43;32.05;;;13.32;;
27863;SDS011;15980;51.092;13.916;2022-08-25T19:37:48;28.17;;;11.77;;
27863;SDS011;15980;51.092;13.916;2022-08-25T19:42:51;22.45;;;12.02;;
27863;SDS011;15980;51.092;13.916;2022-08-25T19:47:56;17.30;;;11.45;;
27863;SDS011;15980;51.092;13.916;2022-08-25T19:52:59;17.65;;;10.65;;
27863;SDS011;15980;51.092;13.916;2022-08-25T19:58:02;23.00;;;10.40;;
27863;SDS011;15980;51.092;13.916;2022-08-25T20:03:07;20.73;;;11.35;;
27863;SDS011;15980;51.092;13.916;2022-08-25T20:08:10;18.02;;;10.48;;
27863;SDS011;15980;51.092;13.916;2022-08-25T20:13:12;18.83;;;10.55;;
27863;SDS011;15980;51.092;13.916;2022-08-25T20:18:16;21.00;;;11.05;;
27863;SDS011;15980;51.092;13.916;2022-08-25T20:23:19;21.70;;;10.95;;
27863;SDS011;15980;51.092;13.916;2022-08-25T20:28:39;20.17;;;10.80;;
27863;SDS011;15980;51.092;13.916;2022-08-25T20:33:44;23.65;;;10.85;;
27863;SDS011;15980;51.092;13.916;2022-08-25T20:38:46;15.88;;;10.90;;
27863;SDS011;15980;51.092;13.916;2022-08-25T20:43:49;19.50;;;11.15;;
27863;SDS011;15980;51.092;13.916;2022-08-25T20:48:53;18.42;;;11.23;;
27863;SDS011;15980;51.092;13.916;2022-08-25T20:53:58;18.52;;;11.18;;
27863;SDS011;15980;51.092;13.916;2022-08-25T20:59:00;20.33;;;11.32;;
27863;SDS011;15980;51.092;13.916;2022-08-25T21:04:06;25.33;;;12.60;;
27863;SDS011;15980;51.092;13.916;2022-08-25T21:09:12;22.17;;;12.38;;
27863;SDS011;15980;51.092;13.916;2022-08-25T21:14:17;21.10;;;12.73;;
27863;SDS011;15980;51.092;13.916;2022-08-25T21:19:22;19.63;;;11.68;;
27863;SDS011;15980;51.092;13.916;2022-08-25T21:24:27;24.38;;;13.25;;
27863;SDS011;15980;51.092;13.916;2022-08-25T21:29:30;24.25;;;12.68;;
27863;SDS011;15980;51.092;13.916;2022-08-25T21:34:34;21.05;;;11.80;;
27863;SDS011;15980;51.092;13.916;2022-08-25T21:39:37;22.67;;;13.00;;
27863;SDS011;15980;51.092;13.916;2022-08-25T21:44:40;21.95;;;11.77;;
27863;SDS011;15980;51.092;13.916;2022-08-25T21:49:44;23.02;;;12.38;;
27863;SDS011;15980;51.092;13.916;2022-08-25T21:54:47;19.10;;;12.25;;
27863;SDS011;15980;51.092;13.916;2022-08-25T21:59:50;21.10;;;12.52;;
27863;SDS011;15980;51.092;13.916;2022-08-25T22:04:54;25.17;;;12.80;;
27863;SDS011;15980;51.092;13.916;2022-08-25T22:09:57;23.35;;;12.07;;
27863;SDS011;15980;51.092;13.916;2022-08-25T22:15:00;22.33;;;12.43;;
27863;SDS011;15980;51.092;13.916;2022-08-25T22:20:05;21.23;;;11.55;;
27863;SDS011;15980;51.092;13.916;2022-08-25T22:25:09;26.73;;;13.02;;
27863;SDS011;15980;51.092;13.916;2022-08-25T22:30:13;22.20;;;12.88;;
27863;SDS011;15980;51.092;13.916;2022-08-25T22:35:17;26.25;;;13.02;;
27863;SDS011;15980;51.092;13.916;2022-08-25T22:40:21;31.13;;;13.32;;
27863;SDS011;15980;51.092;13.916;2022-08-25T22:45:23;21.33;;;13.55;;
27863;SDS011;15980;51.092;13.916;2022-08-25T22:50:28;27.30;;;14.65;;
27863;SDS011;15980;51.092;13.916;2022-08-25T22:55:31;31.30;;;14.93;;
27863;SDS011;15980;51.092;13.916;2022-08-25T23:00:34;22.00;;;13.95;;
27863;SDS011;15980;51.092;13.916;2022-08-25T23:05:41;24.55;;;14.10;;
27863;SDS011;15980;51.092;13.916;2022-08-25T23:10:47;23.70;;;13.68;;
27863;SDS011;15980;51.092;13.916;2022-08-25T23:15:51;20.27;;;13.05;;
27863;SDS011;15980;51.092;13.916;2022-08-25T23:20:55;19.15;;;12.40;;
27863;SDS011;15980;51.092;13.916;2022-08-25T23:26:15;22.25;;;12.85;;
27863;SDS011;15980;51.092;13.916;2022-08-25T23:31:20;23.27;;;13.43;;
27863;SDS011;15980;51.092;13.916;2022-08-25T23:36:24;20.85;;;13.13;;
27863;SDS011;15980;51.092;13.916;2022-08-25T23:41:27;22.02;;;13.32;;
27863;SDS011;15980;51.092;13.916;2022-08-25T23:46:30;21.65;;;12.90;;
27863;SDS011;15980;51.092;13.916;2022-08-25T23:51:36;21.02;;;13.10;;
27863;SDS011;15980;51.092;13.916;2022-08-25T23:56:39;22.48;;;13.55;;
